createdAt,value
2023-04-16T00:00:58.522Z,92.75
2023-04-16T00:03:25.088Z,93.29
2023-04-16T00:05:51.701Z,93.14
2023-04-16T00:08:18.428Z,92.87
2023-04-16T00:10:44.783Z,93.81
2023-04-16T00:13:11.125Z,94.34
2023-04-16T00:15:37.490Z,93.76
2023-04-16T00:18:03.895Z,94.08
2023-04-16T00:20:30.299Z,94.38
2023-04-16T00:22:57.018Z,94.51
2023-04-16T00:25:23.444Z,94.48
2023-04-16T00:27:49.965Z,94.21
2023-04-16T00:30:16.625Z,94.50
2023-04-16T00:32:43.080Z,94.03
2023-04-16T00:35:09.605Z,93.81
2023-04-16T00:37:36.054Z,93.78
2023-04-16T00:40:02.539Z,94.07
2023-04-16T00:42:29.174Z,94.00
2023-04-16T00:44:55.658Z,93.42
2023-04-16T00:47:22.227Z,93.40
2023-04-16T00:49:49.067Z,93.52
2023-04-16T00:52:15.482Z,93.61
2023-04-16T00:54:41.967Z,93.56
2023-04-16T00:57:09.041Z,93.70
2023-04-16T00:59:35.597Z,93.41
2023-04-16T01:02:02.160Z,93.13
2023-04-16T01:04:30.897Z,93.18
2023-04-16T01:06:57.502Z,93.28
2023-04-16T01:09:23.896Z,93.34
2023-04-16T01:11:50.287Z,93.82
2023-04-16T01:14:16.720Z,93.07
2023-04-16T01:16:43.083Z,93.56
2023-04-16T01:19:09.661Z,92.96
2023-04-16T01:21:36.223Z,93.38
2023-04-16T01:24:04.607Z,93.24
2023-04-16T01:26:31.451Z,93.29
2023-04-16T01:28:57.936Z,92.51
2023-04-16T01:31:24.467Z,92.32
2023-04-16T01:33:50.871Z,93.18
2023-04-16T01:36:17.536Z,93.41
2023-04-16T01:38:44.050Z,93.80
2023-04-16T01:41:10.428Z,93.93
2023-04-16T01:43:38.974Z,93.00
2023-04-16T01:46:13.947Z,93.00
2023-04-16T01:48:40.453Z,92.37
2023-04-16T01:51:06.842Z,92.91
2023-04-16T01:53:34.696Z,93.66
2023-04-16T01:56:02.167Z,93.92
2023-04-16T01:58:30.219Z,93.72
2023-04-16T02:00:56.734Z,93.59
2023-04-16T02:03:24.885Z,93.45
2023-04-16T02:05:51.844Z,93.57
2023-04-16T02:08:18.242Z,94.09
2023-04-16T02:10:49.344Z,94.23
2023-04-16T02:13:16.590Z,93.99
2023-04-16T02:15:50.457Z,94.25
2023-04-16T02:18:17.005Z,93.56
2023-04-16T02:20:45.283Z,93.84
2023-04-16T02:23:12.559Z,94.19
2023-04-16T02:25:43.325Z,94.27
2023-04-16T02:28:14.156Z,94.10
2023-04-16T02:30:41.488Z,93.76
2023-04-16T02:33:10.478Z,93.86
2023-04-16T02:35:38.921Z,93.96
2023-04-16T02:38:06.035Z,93.99
2023-04-16T02:40:32.587Z,94.76
2023-04-16T02:42:59.058Z,94.13
2023-04-16T02:45:25.564Z,94.08
2023-04-16T02:47:52.128Z,93.86
2023-04-16T02:50:18.780Z,93.84
2023-04-16T02:52:45.370Z,93.42
2023-04-16T02:55:11.998Z,93.97
2023-04-16T02:57:38.414Z,93.73
2023-04-16T03:00:05.411Z,94.50
2023-04-16T03:02:31.967Z,94.41
2023-04-16T03:04:58.498Z,93.42
2023-04-16T03:07:24.978Z,93.68
2023-04-16T03:09:51.803Z,94.28
2023-04-16T03:12:18.194Z,94.10
2023-04-16T03:14:44.540Z,94.25
2023-04-16T03:17:10.975Z,93.88
2023-04-16T03:19:37.366Z,93.86
2023-04-16T03:22:03.736Z,93.10
2023-04-16T03:24:30.225Z,93.56
2023-04-16T03:26:57.884Z,93.74
2023-04-16T03:29:24.529Z,93.29
2023-04-16T03:31:50.883Z,93.58
2023-04-16T03:34:17.292Z,93.64
2023-04-16T03:36:43.632Z,93.69
2023-04-16T03:39:10.156Z,93.95
2023-04-16T03:41:37.037Z,93.86
2023-04-16T03:44:03.448Z,93.87
2023-04-16T03:46:29.851Z,93.57
2023-04-16T03:48:56.306Z,94.15
2023-04-16T03:51:22.875Z,93.62
2023-04-16T03:53:49.277Z,93.79
2023-04-16T03:56:15.660Z,93.97
2023-04-16T03:58:42.058Z,93.82
2023-04-16T04:01:08.518Z,93.96
2023-04-16T04:03:35.091Z,93.89
2023-04-16T04:06:01.679Z,94.26
2023-04-16T04:08:28.097Z,94.06
2023-04-16T04:10:54.459Z,94.19
2023-04-16T04:13:21.014Z,94.22
2023-04-16T04:15:47.501Z,93.58
2023-04-16T04:18:14.075Z,92.95
2023-04-16T04:20:41.198Z,93.57
2023-04-16T04:23:07.803Z,93.45
2023-04-16T04:25:34.175Z,93.79
2023-04-16T04:28:00.613Z,93.47
2023-04-16T04:30:26.975Z,94.18
2023-04-16T04:32:53.349Z,94.22
2023-04-16T04:35:19.819Z,94.09
2023-04-16T04:37:46.492Z,94.37
2023-04-16T04:40:13.095Z,92.15
2023-04-16T04:42:39.591Z,92.28
2023-04-16T04:45:06.555Z,92.07
2023-04-16T04:47:33.254Z,93.33
2023-04-16T04:49:59.918Z,92.56
2023-04-16T04:52:26.278Z,92.20
2023-04-16T04:54:52.772Z,92.32
2023-04-16T04:57:19.184Z,91.91
2023-04-16T04:59:45.654Z,91.66
2023-04-16T05:02:12.416Z,92.78
2023-04-16T05:04:38.844Z,92.37
2023-04-16T05:07:06.507Z,92.62
2023-04-16T05:09:33.009Z,92.77
2023-04-16T05:11:59.461Z,92.56
2023-04-16T05:14:25.817Z,92.41
2023-04-16T05:16:52.227Z,92.46
2023-04-16T05:19:18.615Z,92.31
2023-04-16T05:21:45.068Z,91.46
2023-04-16T05:24:13.637Z,91.96
2023-04-16T05:26:41.254Z,92.58
2023-04-16T05:29:07.875Z,92.88
2023-04-16T05:31:34.342Z,92.81
2023-04-16T05:34:00.682Z,92.76
2023-04-16T05:36:27.189Z,92.50
2023-04-16T05:38:53.695Z,92.60
2023-04-16T05:41:20.383Z,91.78
2023-04-16T05:43:46.760Z,91.53
2023-04-16T05:46:13.177Z,91.06
2023-04-16T05:48:39.589Z,91.16
2023-04-16T05:51:06.060Z,91.44
2023-04-16T05:53:32.559Z,91.46
2023-04-16T05:55:59.214Z,91.37
2023-04-16T05:58:25.688Z,91.73
2023-04-16T06:00:52.394Z,91.60
2023-04-16T06:03:18.841Z,90.86
2023-04-16T06:05:45.492Z,91.42
2023-04-16T06:08:12.010Z,90.26
2023-04-16T06:10:38.412Z,90.89
2023-04-16T06:13:04.808Z,90.39
2023-04-16T06:15:31.201Z,90.46
2023-04-16T06:18:00.211Z,90.38
2023-04-16T06:20:27.173Z,89.65
2023-04-16T06:22:53.585Z,90.28
2023-04-16T06:25:20.085Z,89.99
2023-04-16T06:27:46.464Z,89.98
2023-04-16T06:30:14.383Z,90.39
2023-04-16T06:32:41.878Z,90.46
2023-04-16T06:35:08.905Z,89.89
2023-04-16T06:37:35.639Z,90.41
2023-04-16T06:40:02.164Z,89.77
2023-04-16T06:42:28.655Z,89.75
2023-04-16T06:44:55.325Z,89.48
2023-04-16T06:47:21.814Z,88.18
2023-04-16T06:49:48.521Z,88.32
2023-04-16T06:52:14.990Z,87.55
2023-04-16T06:54:41.444Z,87.17
2023-04-16T06:57:08.133Z,87.66
2023-04-16T06:59:34.495Z,87.12
2023-04-16T07:02:01.286Z,87.24
2023-04-16T07:04:28.950Z,87.46
2023-04-16T07:06:55.344Z,85.35
2023-04-16T07:09:21.702Z,86.87
2023-04-16T07:11:48.422Z,85.66
2023-04-16T07:14:14.848Z,86.46
2023-04-16T07:16:41.294Z,85.05
2023-04-16T07:19:08.149Z,84.86
2023-04-16T07:21:34.677Z,83.92
2023-04-16T07:24:01.117Z,84.64
2023-04-16T07:26:27.501Z,85.91
2023-04-16T07:28:53.856Z,84.93
2023-04-16T07:31:20.652Z,85.43
2023-04-16T07:33:47.115Z,84.50
2023-04-16T07:36:14.037Z,84.84
2023-04-16T07:38:40.708Z,84.35
2023-04-16T07:41:07.138Z,82.00
2023-04-16T07:43:33.795Z,81.67
2023-04-16T07:46:00.427Z,81.25
2023-04-16T07:48:29.841Z,79.94
2023-04-16T07:50:56.297Z,82.03
2023-04-16T07:53:22.762Z,79.66
2023-04-16T07:55:49.303Z,80.68
2023-04-16T07:58:15.770Z,81.28
2023-04-16T08:00:42.426Z,81.12
2023-04-16T08:03:08.943Z,82.01
2023-04-16T08:05:35.690Z,81.25
2023-04-16T08:08:02.255Z,80.70
2023-04-16T08:10:28.793Z,81.85
2023-04-16T08:12:55.324Z,81.11
2023-04-16T08:15:21.742Z,80.46
2023-04-16T08:17:48.143Z,81.49
2023-04-16T08:20:16.359Z,80.40
2023-04-16T08:22:45.990Z,81.78
2023-04-16T08:25:12.370Z,81.68
2023-04-16T08:27:38.856Z,80.54
2023-04-16T08:30:05.920Z,80.26
2023-04-16T08:32:32.703Z,79.98
2023-04-16T08:34:59.480Z,80.88
2023-04-16T08:37:26.326Z,80.36
2023-04-16T08:39:52.683Z,80.72
2023-04-16T08:42:28.605Z,80.15
2023-04-16T08:45:15.496Z,81.58
2023-04-16T08:47:46.269Z,80.97
2023-04-16T08:50:16.033Z,80.12
2023-04-16T08:52:53.537Z,81.77
2023-04-16T08:55:23.761Z,79.55
2023-04-16T08:57:57.544Z,79.77
2023-04-16T09:00:24.588Z,79.59
2023-04-16T09:02:51.835Z,79.48
2023-04-16T09:05:20.578Z,78.65
2023-04-16T09:07:47.849Z,79.54
2023-04-16T09:10:17.445Z,79.28
2023-04-16T09:12:44.521Z,79.00
2023-04-16T09:15:12.510Z,79.58
2023-04-16T09:17:39.986Z,79.36
2023-04-16T09:20:12.479Z,78.58
2023-04-16T09:22:42.282Z,78.60
2023-04-16T09:25:09.676Z,77.63
2023-04-16T09:27:36.615Z,77.82
2023-04-16T09:30:22.660Z,78.39
2023-04-16T09:32:50.584Z,77.33
2023-04-16T09:35:20.649Z,77.63
2023-04-16T09:37:57.794Z,77.18
2023-04-16T09:40:27.120Z,77.75
2023-04-16T09:42:57.254Z,77.55
2023-04-16T09:45:23.690Z,77.13
2023-04-16T09:47:50.043Z,76.22
2023-04-16T09:50:19.025Z,76.76
2023-04-16T09:52:49.467Z,76.81
2023-04-16T09:55:15.982Z,75.70
2023-04-16T09:57:42.419Z,76.19
2023-04-16T10:00:10.267Z,76.11
2023-04-16T10:02:41.546Z,75.23
2023-04-16T10:05:08.595Z,74.42
2023-04-16T10:07:36.732Z,73.74
2023-04-16T10:10:04.234Z,74.06
2023-04-16T10:12:32.640Z,73.28
2023-04-16T10:14:59.352Z,73.91
2023-04-16T10:17:26.431Z,71.69
2023-04-16T10:19:54.564Z,73.94
2023-04-16T10:22:21.022Z,72.71
2023-04-16T10:24:48.787Z,71.74
2023-04-16T10:27:16.590Z,71.27
2023-04-16T10:29:43.931Z,71.75
2023-04-16T10:32:10.692Z,70.72
2023-04-16T10:34:37.199Z,70.65
2023-04-16T10:37:03.858Z,72.05
2023-04-16T10:39:30.322Z,70.27
2023-04-16T10:42:13.213Z,70.43
2023-04-16T10:44:43.397Z,71.96
2023-04-16T10:47:12.950Z,71.08
2023-04-16T10:49:40.447Z,70.37
2023-04-16T10:52:17.106Z,71.53
2023-04-16T10:54:43.608Z,71.57
2023-04-16T10:57:16.071Z,68.55
2023-04-16T10:59:43.875Z,66.49
2023-04-16T11:02:15.896Z,68.54
2023-04-16T11:04:45.270Z,70.12
2023-04-16T11:07:13.799Z,68.40
2023-04-16T11:10:02.195Z,67.70
2023-04-16T11:12:38.451Z,66.61
2023-04-16T11:15:07.344Z,67.71
2023-04-16T11:17:37.627Z,66.87
2023-04-16T11:20:19.462Z,67.05
2023-04-16T11:22:48.020Z,65.46
2023-04-16T11:25:22.823Z,64.40
2023-04-16T11:27:50.339Z,65.28
2023-04-16T11:30:17.070Z,64.62
2023-04-16T11:32:44.029Z,64.01
2023-04-16T11:35:18.615Z,64.60
2023-04-16T11:37:45.892Z,64.19
2023-04-16T11:40:12.912Z,63.11
2023-04-16T11:42:41.444Z,62.71
2023-04-16T11:45:09.963Z,61.72
2023-04-16T11:47:52.033Z,60.34
2023-04-16T11:50:27.741Z,60.93
2023-04-16T11:52:55.438Z,61.98
2023-04-16T11:55:22.222Z,62.09
2023-04-16T11:57:49.331Z,61.05
2023-04-16T12:00:19.008Z,59.36
2023-04-16T12:02:51.898Z,60.49
2023-04-16T12:05:33.700Z,60.26
2023-04-16T12:08:03.182Z,61.10
2023-04-16T12:10:31.146Z,62.03
2023-04-16T12:13:17.258Z,61.68
2023-04-16T12:15:51.458Z,61.58
2023-04-16T12:18:20.161Z,61.14
2023-04-16T12:20:47.457Z,61.69
2023-04-16T12:23:32.133Z,59.65
2023-04-16T12:26:02.170Z,57.83
2023-04-16T12:28:34.016Z,58.83
2023-04-16T12:31:01.489Z,58.99
2023-04-16T12:33:28.103Z,60.05
2023-04-16T12:35:54.865Z,61.13
2023-04-16T12:38:24.053Z,59.94
2023-04-16T12:40:51.496Z,60.67
2023-04-16T12:43:18.258Z,61.28
2023-04-16T12:45:44.849Z,62.18
2023-04-16T12:48:11.552Z,62.80
2023-04-16T12:50:39.563Z,63.67
2023-04-16T12:53:06.100Z,63.25
2023-04-16T12:55:32.514Z,61.76
2023-04-16T12:57:58.970Z,61.42
2023-04-16T13:00:25.500Z,60.81
2023-04-16T13:02:52.546Z,58.50
2023-04-16T13:05:19.569Z,60.26
2023-04-16T13:07:46.145Z,60.34
2023-04-16T13:10:13.376Z,59.29
2023-04-16T13:12:40.856Z,58.60
2023-04-16T13:15:07.793Z,58.18
2023-04-16T13:17:34.222Z,57.53
2023-04-16T13:20:00.665Z,57.44
2023-04-16T13:22:27.196Z,58.65
2023-04-16T13:24:53.686Z,58.88
2023-04-16T13:27:20.510Z,59.94
2023-04-16T13:29:47.126Z,60.55
2023-04-16T13:32:14.799Z,58.88
2023-04-16T13:34:41.209Z,60.13
2023-04-16T13:37:07.558Z,59.72
2023-04-16T13:39:33.944Z,59.46
2023-04-16T13:42:00.470Z,58.49
2023-04-16T13:44:26.956Z,59.02
2023-04-16T13:46:53.416Z,59.95
2023-04-16T13:49:19.903Z,60.99
2023-04-16T13:51:46.398Z,61.78
2023-04-16T13:54:12.996Z,63.29
2023-04-16T13:56:39.814Z,63.63
2023-04-16T13:59:06.429Z,63.29
2023-04-16T14:01:33.117Z,61.91
2023-04-16T14:04:05.941Z,62.91
2023-04-16T14:06:33.057Z,63.62
2023-04-16T14:08:59.480Z,63.95
2023-04-16T14:11:25.900Z,63.30
2023-04-16T14:13:52.590Z,65.16
2023-04-16T14:16:19.285Z,66.56
2023-04-16T14:18:45.796Z,66.60
2023-04-16T14:21:13.503Z,66.06
2023-04-16T14:23:39.851Z,66.08
2023-04-16T14:26:06.307Z,65.78
2023-04-16T14:28:32.793Z,66.03
2023-04-16T14:30:59.171Z,67.08
2023-04-16T14:33:25.838Z,65.82
2023-04-16T14:35:52.340Z,65.57
2023-04-16T14:38:18.801Z,65.31
2023-04-16T14:40:45.183Z,64.90
2023-04-16T14:43:11.590Z,65.58
2023-04-16T14:45:39.178Z,66.54
2023-04-16T14:48:06.321Z,67.23
2023-04-16T14:50:38.794Z,67.91
2023-04-16T14:53:05.656Z,67.59
2023-04-16T14:55:32.648Z,67.88
2023-04-16T14:57:59.759Z,68.69
2023-04-16T15:00:27.563Z,69.44
2023-04-16T15:02:54.887Z,70.46
2023-04-16T15:05:22.051Z,70.91
2023-04-16T15:07:48.848Z,70.92
2023-04-16T15:10:15.496Z,71.57
2023-04-16T15:12:41.982Z,72.25
2023-04-16T15:15:09.074Z,71.94
2023-04-16T15:17:35.690Z,70.86
2023-04-16T15:20:02.630Z,71.16
2023-04-16T15:22:29.022Z,71.42
2023-04-16T15:24:55.538Z,71.27
2023-04-16T15:27:21.921Z,70.57
2023-04-16T15:29:49.636Z,69.78
2023-04-16T15:32:16.184Z,70.07
2023-04-16T15:34:42.705Z,71.22
2023-04-16T15:37:09.643Z,71.76
2023-04-16T15:39:36.032Z,71.42
2023-04-16T15:42:07.198Z,70.85
2023-04-16T15:44:34.634Z,69.87
2023-04-16T15:47:01.064Z,71.25
2023-04-16T15:49:27.508Z,71.29
2023-04-16T15:51:54.068Z,70.88
2023-04-16T15:54:20.466Z,73.17
2023-04-16T15:56:47.044Z,73.29
2023-04-16T15:59:13.731Z,74.50
2023-04-16T16:01:40.477Z,75.57
2023-04-16T16:04:08.193Z,74.89
2023-04-16T16:06:34.967Z,76.11
2023-04-16T16:09:01.868Z,77.30
2023-04-16T16:11:28.390Z,77.68
2023-04-16T16:13:54.877Z,78.34
2023-04-16T16:16:21.889Z,77.04
2023-04-16T16:18:48.580Z,78.69
2023-04-16T16:21:15.102Z,78.51
2023-04-16T16:23:41.575Z,78.70
2023-04-16T16:26:08.103Z,79.66
2023-04-16T16:28:37.515Z,78.83
2023-04-16T16:31:04.492Z,79.47
2023-04-16T16:33:31.298Z,78.96
2023-04-16T16:35:57.742Z,79.16
2023-04-16T16:38:24.514Z,79.30
2023-04-16T16:40:50.975Z,79.55
2023-04-16T16:43:17.597Z,80.45
2023-04-16T16:45:47.061Z,80.99
2023-04-16T16:48:15.060Z,81.57
2023-04-16T16:50:47.384Z,81.98
2023-04-16T16:53:14.150Z,81.79
2023-04-16T16:55:40.752Z,81.88
2023-04-16T16:58:08.782Z,81.36
2023-04-16T17:00:36.466Z,81.36
2023-04-16T17:03:05.488Z,81.51
2023-04-16T17:05:48.271Z,81.56
2023-04-16T17:08:19.721Z,81.38
2023-04-16T17:10:48.263Z,81.84
2023-04-16T17:13:20.747Z,82.79
2023-04-16T17:15:47.850Z,82.85
2023-04-16T17:18:16.051Z,82.31
2023-04-16T17:21:03.799Z,82.85
2023-04-16T17:23:30.684Z,83.17
2023-04-16T17:26:00.061Z,83.03
2023-04-16T17:28:27.012Z,83.13
2023-04-16T17:30:54.278Z,83.48
2023-04-16T17:33:22.296Z,82.99
2023-04-16T17:35:48.687Z,83.68
2023-04-16T17:38:15.170Z,83.47
2023-04-16T17:40:48.321Z,84.44
2023-04-16T17:43:14.848Z,84.42
2023-04-16T17:45:41.348Z,84.97
2023-04-16T17:48:07.949Z,85.86
2023-04-16T17:50:34.437Z,86.64
2023-04-16T17:53:03.824Z,86.21
2023-04-16T17:55:30.653Z,87.57
2023-04-16T17:57:57.341Z,87.56
2023-04-16T18:00:24.125Z,87.87
2023-04-16T18:02:52.478Z,88.65
2023-04-16T18:05:19.735Z,88.83
2023-04-16T18:07:47.244Z,88.48
2023-04-16T18:10:13.783Z,88.99
2023-04-16T18:12:40.479Z,89.25
2023-04-16T18:15:07.569Z,90.39
2023-04-16T18:17:34.154Z,90.03
2023-04-16T18:20:00.594Z,90.27
2023-04-16T18:22:28.719Z,91.05
2023-04-16T18:24:55.577Z,90.56
2023-04-16T18:27:26.732Z,91.15
2023-04-16T18:29:54.874Z,90.84
2023-04-16T18:32:21.818Z,91.26
2023-04-16T18:34:48.644Z,91.24
2023-04-16T18:37:15.090Z,91.58
2023-04-16T18:39:43.803Z,92.82
2023-04-16T18:42:10.720Z,92.76
2023-04-16T18:44:37.417Z,93.15
2023-04-16T18:47:04.212Z,92.69
2023-04-16T18:49:30.790Z,92.56
2023-04-16T18:51:57.153Z,93.05
2023-04-16T18:54:23.510Z,93.91
2023-04-16T18:56:49.914Z,93.64
2023-04-16T18:59:16.543Z,92.52
2023-04-16T19:01:43.218Z,92.50
2023-04-16T19:04:09.830Z,92.66
2023-04-16T19:06:36.293Z,93.30
2023-04-16T19:09:21.580Z,93.61
2023-04-16T19:11:50.954Z,94.61
2023-04-16T19:14:17.873Z,94.29
2023-04-16T19:16:44.622Z,93.61
2023-04-16T19:19:11.327Z,94.65
2023-04-16T19:21:38.557Z,95.30
2023-04-16T19:24:07.722Z,94.95
2023-04-16T19:26:36.511Z,95.87
2023-04-16T19:29:12.469Z,95.24
2023-04-16T19:31:39.340Z,96.41
2023-04-16T19:34:05.915Z,96.15
2023-04-16T19:36:32.720Z,96.61
2023-04-16T19:39:01.861Z,96.05
2023-04-16T19:41:28.371Z,95.24
2023-04-16T19:43:54.957Z,96.06
2023-04-16T19:46:21.424Z,96.23
2023-04-16T19:48:47.909Z,96.97
2023-04-16T19:51:14.943Z,96.92
2023-04-16T19:53:42.526Z,97.51
2023-04-16T19:56:10.781Z,97.64
2023-04-16T19:58:39.341Z,97.01
2023-04-16T20:01:13.731Z,96.88
2023-04-16T20:03:41.289Z,97.00
2023-04-16T20:06:13.835Z,97.23
2023-04-16T20:08:41.749Z,97.74
2023-04-16T20:11:09.579Z,97.71
2023-04-16T20:13:39.137Z,97.79
2023-04-16T20:16:09.328Z,97.65
2023-04-16T20:18:41.597Z,97.55
2023-04-16T20:21:09.164Z,97.20
2023-04-16T20:23:35.751Z,97.42
2023-04-16T20:26:02.838Z,97.11
2023-04-16T20:28:29.252Z,97.49
2023-04-16T20:30:55.704Z,97.33
2023-04-16T20:33:22.206Z,97.64
2023-04-16T20:35:50.752Z,97.63
2023-04-16T20:38:18.356Z,97.27
2023-04-16T20:40:44.995Z,97.03
2023-04-16T20:43:14.340Z,97.28
2023-04-16T20:45:41.017Z,97.16
2023-04-16T20:48:07.838Z,97.04
2023-04-16T20:50:34.335Z,96.92
2023-04-16T20:53:00.893Z,97.43
2023-04-16T20:55:27.501Z,97.41
2023-04-16T20:57:54.158Z,97.23
2023-04-16T21:00:21.094Z,97.46
2023-04-16T21:02:47.891Z,97.44
2023-04-16T21:05:14.857Z,97.24
2023-04-16T21:07:41.979Z,97.56
2023-04-16T21:10:10.602Z,96.85
2023-04-16T21:12:37.241Z,97.40
2023-04-16T21:15:04.598Z,98.07
2023-04-16T21:17:31.583Z,98.28
2023-04-16T21:19:58.089Z,97.72
2023-04-16T21:22:24.847Z,96.85
2023-04-16T21:24:51.336Z,96.76
2023-04-16T21:27:17.773Z,96.90
2023-04-16T21:29:44.116Z,95.91
2023-04-16T21:32:10.717Z,94.95
2023-04-16T21:34:37.399Z,94.78
2023-04-16T21:37:04.160Z,96.17
2023-04-16T21:39:31.225Z,95.85
2023-04-16T21:41:57.981Z,96.44
2023-04-16T21:44:24.349Z,96.16
2023-04-16T21:46:51.253Z,96.28
2023-04-16T21:49:17.680Z,96.77
2023-04-16T21:51:45.992Z,95.80
2023-04-16T21:54:13.163Z,96.08
2023-04-16T21:56:39.574Z,95.68
2023-04-16T21:59:06.068Z,96.42
2023-04-16T22:01:32.516Z,95.72
2023-04-16T22:03:59.346Z,95.41
2023-04-16T22:06:27.174Z,95.84
2023-04-16T22:08:53.891Z,95.85
2023-04-16T22:11:20.825Z,95.32
2023-04-16T22:13:47.518Z,96.10
2023-04-16T22:16:13.990Z,96.21
2023-04-16T22:18:41.303Z,96.21
2023-04-16T22:21:07.714Z,95.35
2023-04-16T22:23:34.118Z,95.67
2023-04-16T22:26:02.723Z,95.00
2023-04-16T22:28:29.551Z,95.12
2023-04-16T22:30:56.379Z,95.24
2023-04-16T22:33:22.826Z,95.14
2023-04-16T22:35:49.179Z,95.38
2023-04-16T22:38:16.582Z,96.03
2023-04-16T22:40:43.078Z,96.21
2023-04-16T22:43:09.444Z,95.05
2023-04-16T22:45:37.429Z,95.52
2023-04-16T22:48:04.088Z,95.61
2023-04-16T22:50:31.965Z,96.56
2023-04-16T22:52:58.491Z,96.06
2023-04-16T22:55:25.423Z,96.22
2023-04-16T22:57:52.093Z,96.90
2023-04-16T23:00:19.327Z,96.42
2023-04-16T23:02:45.824Z,96.57
2023-04-16T23:05:12.291Z,95.10
2023-04-16T23:07:38.895Z,95.85
2023-04-16T23:10:05.792Z,96.54
2023-04-16T23:12:32.167Z,96.25
2023-04-16T23:15:00.349Z,95.84
2023-04-16T23:17:27.093Z,96.02
2023-04-16T23:19:53.558Z,95.11
2023-04-16T23:22:19.910Z,94.97
2023-04-16T23:24:46.333Z,95.22
2023-04-16T23:27:12.698Z,95.38
2023-04-16T23:29:39.158Z,95.91
2023-04-16T23:32:05.552Z,95.33
2023-04-16T23:34:32.002Z,95.35
2023-04-16T23:36:58.443Z,96.33
2023-04-16T23:39:24.876Z,96.51
2023-04-16T23:41:51.545Z,96.07
2023-04-16T23:44:18.210Z,95.90
2023-04-16T23:46:44.742Z,95.79
2023-04-16T23:49:11.415Z,95.66
2023-04-16T23:51:38.024Z,95.64
2023-04-16T23:54:04.586Z,95.92
2023-04-16T23:56:31.404Z,96.30
2023-04-16T23:58:57.737Z,96.52
